ENCN/KRS METAR and TAF weather

Enter ICAO airport designator
Station Type Date Time Source
ENCN METAR 2023/02/05 14:50 UTC NOAA

ENCN 051450Z VRB02KT CAVOK 06/M02 Q1037


Station Type Date Time Source
ENCN Decoded METAR 2023/02/05 14:50 UTC NOAA

Kristiansand / Kjevik, Norway (ENCN) 58-12N 008-05E 17M
Feb 05, 2023 - 09:50 AM EST / 2023.02.05 1450 UTC
Wind: Variable at 2 MPH (2 KT):0
Visibility: greater than 7 mile(s):0
Temperature: 42 F (6 C)
Dew Point: 28 F (-2 C)
Relative Humidity: 56%
Pressure (altimeter): 30.62 in. Hg (1037 hPa)
ob: ENCN 051450Z VRB02KT CAVOK 06/M02 Q1037
cycle: 15

Station Type Date Time Source
ENCN TAF 2016/05/06 12:39 UTC NOAA

TAF TAF ENCN 061100Z 0612/0712 14008KT 9999 FEW040

Example: see airport list